sensor_id;sensor_type;location;lat;lon;timestamp;pressure;altitude;pressure_sealevel;temperature;humidity
6694;BME280;3384;42.628;23.380;2022-09-09T00:00:24;94463.84;;;19.08;100.00
6694;BME280;3384;42.628;23.380;2022-09-09T00:02:58;94447.56;;;19.24;100.00
6694;BME280;3384;42.628;23.380;2022-09-09T00:05:33;94448.94;;;19.18;100.00
6694;BME280;3384;42.628;23.380;2022-09-09T00:08:03;94444.78;;;18.92;100.00
6694;BME280;3384;42.628;23.380;2022-09-09T00:10:33;94441.88;;;18.85;100.00
6694;BME280;3384;42.628;23.380;2022-09-09T00:13:08;94444.59;;;18.85;100.00
6694;BME280;3384;42.628;23.380;2022-09-09T00:15:49;94457.63;;;18.80;100.00
6694;BME280;3384;42.628;23.380;2022-09-09T00:18:24;94447.84;;;18.63;100.00
6694;BME280;3384;42.628;23.380;2022-09-09T00:20:58;94452.00;;;18.73;100.00
6694;BME280;3384;42.628;23.380;2022-09-09T00:23:32;94452.84;;;18.61;100.00
6694;BME280;3384;42.628;23.380;2022-09-09T00:26:09;94442.00;;;18.61;100.00
6694;BME280;3384;42.628;23.380;2022-09-09T00:28:45;94437.06;;;18.51;100.00
6694;BME280;3384;42.628;23.380;2022-09-09T00:31:21;94427.84;;;18.56;100.00
6694;BME280;3384;42.628;23.380;2022-09-09T00:33:49;94426.63;;;18.53;100.00
6694;BME280;3384;42.628;23.380;2022-09-09T00:36:18;94418.31;;;18.34;100.00
6694;BME280;3384;42.628;23.380;2022-09-09T00:38:49;94427.78;;;18.52;100.00
6694;BME280;3384;42.628;23.380;2022-09-09T00:41:21;94412.56;;;18.24;100.00
6694;BME280;3384;42.628;23.380;2022-09-09T00:43:57;94413.22;;;18.33;100.00
6694;BME280;3384;42.628;23.380;2022-09-09T00:46:50;94408.41;;;18.14;100.00
6694;BME280;3384;42.628;23.380;2022-09-09T00:49:29;94399.63;;;18.05;100.00
6694;BME280;3384;42.628;23.380;2022-09-09T00:52:05;94402.88;;;18.11;100.00
6694;BME280;3384;42.628;23.380;2022-09-09T00:54:44;94402.84;;;17.95;100.00
6694;BME280;3384;42.628;23.380;2022-09-09T00:57:28;94409.03;;;18.08;100.00
6694;BME280;3384;42.628;23.380;2022-09-09T01:00:17;94404.09;;;18.25;100.00
6694;BME280;3384;42.628;23.380;2022-09-09T01:02:59;94407.59;;;18.26;100.00
6694;BME280;3384;42.628;23.380;2022-09-09T01:05:34;94407.97;;;18.12;100.00
6694;BME280;3384;42.628;23.380;2022-09-09T01:08:10;94400.75;;;18.16;100.00
6694;BME280;3384;42.628;23.380;2022-09-09T01:10:43;94396.28;;;18.36;100.00
6694;BME280;3384;42.628;23.380;2022-09-09T01:13:19;94402.25;;;18.29;100.00
6694;BME280;3384;42.628;23.380;2022-09-09T01:15:48;94412.22;;;18.25;100.00
6694;BME280;3384;42.628;23.380;2022-09-09T01:18:19;94405.91;;;18.21;100.00
6694;BME280;3384;42.628;23.380;2022-09-09T01:20:54;94417.19;;;18.35;100.00
6694;BME280;3384;42.628;23.380;2022-09-09T01:23:51;94414.00;;;18.33;100.00
6694;BME280;3384;42.628;23.380;2022-09-09T01:26:26;94409.44;;;18.22;100.00
6694;BME280;3384;42.628;23.380;2022-09-09T01:28:56;94418.81;;;18.12;100.00
6694;BME280;3384;42.628;23.380;2022-09-09T01:31:27;94398.53;;;17.94;100.00
6694;BME280;3384;42.628;23.380;2022-09-09T01:33:55;94404.00;;;18.22;100.00
6694;BME280;3384;42.628;23.380;2022-09-09T01:36:28;94401.31;;;18.10;100.00
6694;BME280;3384;42.628;23.380;2022-09-09T01:38:56;94410.97;;;17.95;100.00
6694;BME280;3384;42.628;23.380;2022-09-09T01:41:23;94418.19;;;17.91;100.00
6694;BME280;3384;42.628;23.380;2022-09-09T01:43:53;94423.59;;;17.91;100.00
6694;BME280;3384;42.628;23.380;2022-09-09T01:46:21;94420.13;;;17.79;100.00
6694;BME280;3384;42.628;23.380;2022-09-09T01:48:49;94421.81;;;17.83;100.00
6694;BME280;3384;42.628;23.380;2022-09-09T01:51:16;94425.34;;;17.84;100.00
6694;BME280;3384;42.628;23.380;2022-09-09T01:53:44;94430.88;;;17.75;100.00
6694;BME280;3384;42.628;23.380;2022-09-09T01:56:20;94425.09;;;17.89;100.00
6694;BME280;3384;42.628;23.380;2022-09-09T01:59:01;94431.31;;;17.89;100.00
6694;BME280;3384;42.628;23.380;2022-09-09T02:01:38;94425.22;;;17.80;100.00
6694;BME280;3384;42.628;23.380;2022-09-09T02:04:18;94431.81;;;18.07;100.00
6694;BME280;3384;42.628;23.380;2022-09-09T02:06:51;94429.47;;;18.05;100.00
6694;BME280;3384;42.628;23.380;2022-09-09T02:09:23;94423.56;;;18.15;100.00
6694;BME280;3384;42.628;23.380;2022-09-09T02:11:55;94420.41;;;18.13;100.00
6694;BME280;3384;42.628;23.380;2022-09-09T02:14:29;94427.16;;;18.19;100.00
6694;BME280;3384;42.628;23.380;2022-09-09T02:17:01;94429.31;;;18.26;100.00
6694;BME280;3384;42.628;23.380;2022-09-09T02:19:32;94420.13;;;18.30;100.00
6694;BME280;3384;42.628;23.380;2022-09-09T02:22:02;94416.81;;;18.09;100.00
6694;BME280;3384;42.628;23.380;2022-09-09T02:24:33;94406.84;;;18.13;100.00
6694;BME280;3384;42.628;23.380;2022-09-09T02:27:03;94398.72;;;18.01;100.00
6694;BME280;3384;42.628;23.380;2022-09-09T02:29:38;94399.31;;;17.95;100.00
6694;BME280;3384;42.628;23.380;2022-09-09T02:32:09;94409.81;;;17.96;100.00
6694;BME280;3384;42.628;23.380;2022-09-09T02:34:41;94407.25;;;17.76;100.00
6694;BME280;3384;42.628;23.380;2022-09-09T02:37:09;94403.44;;;17.65;100.00
6694;BME280;3384;42.628;23.380;2022-09-09T02:39:37;94406.81;;;17.62;100.00
6694;BME280;3384;42.628;23.380;2022-09-09T02:42:04;94411.22;;;17.66;100.00
6694;BME280;3384;42.628;23.380;2022-09-09T02:44:35;94415.47;;;17.91;100.00
6694;BME280;3384;42.628;23.380;2022-09-09T02:47:13;94413.69;;;17.83;100.00
6694;BME280;3384;42.628;23.380;2022-09-09T02:49:51;94421.47;;;17.85;100.00
6694;BME280;3384;42.628;23.380;2022-09-09T02:52:27;94435.94;;;17.65;100.00
6694;BME280;3384;42.628;23.380;2022-09-09T02:55:02;94437.31;;;17.59;100.00
6694;BME280;3384;42.628;23.380;2022-09-09T02:57:31;94429.84;;;17.68;100.00
6694;BME280;3384;42.628;23.380;2022-09-09T03:00:01;94427.50;;;17.54;100.00
6694;BME280;3384;42.628;23.380;2022-09-09T03:02:28;94426.47;;;17.71;100.00
6694;BME280;3384;42.628;23.380;2022-09-09T03:04:55;94423.31;;;17.81;100.00
6694;BME280;3384;42.628;23.380;2022-09-09T03:07:23;94421.94;;;17.75;100.00
6694;BME280;3384;42.628;23.380;2022-09-09T03:09:50;94417.31;;;17.63;100.00
6694;BME280;3384;42.628;23.380;2022-09-09T03:12:17;94427.25;;;17.59;100.00
6694;BME280;3384;42.628;23.380;2022-09-09T03:14:44;94427.84;;;17.77;100.00
6694;BME280;3384;42.628;23.380;2022-09-09T03:17:13;94429.72;;;17.88;100.00
6694;BME280;3384;42.628;23.380;2022-09-09T03:19:40;94428.03;;;17.72;100.00
6694;BME280;3384;42.628;23.380;2022-09-09T03:22:09;94427.50;;;17.54;100.00
6694;BME280;3384;42.628;23.380;2022-09-09T03:24:36;94428.75;;;17.57;100.00
6694;BME280;3384;42.628;23.380;2022-09-09T03:27:03;94429.06;;;17.55;100.00
6694;BME280;3384;42.628;23.380;2022-09-09T03:29:29;94425.13;;;17.53;100.00
6694;BME280;3384;42.628;23.380;2022-09-09T03:31:56;94425.00;;;17.61;100.00
6694;BME280;3384;42.628;23.380;2022-09-09T03:34:24;94429.97;;;17.59;100.00
6694;BME280;3384;42.628;23.380;2022-09-09T03:36:51;94431.78;;;17.67;100.00
6694;BME280;3384;42.628;23.380;2022-09-09T03:39:18;94437.63;;;17.93;100.00
6694;BME280;3384;42.628;23.380;2022-09-09T03:41:45;94424.06;;;17.93;100.00
6694;BME280;3384;42.628;23.380;2022-09-09T03:44:14;94428.34;;;17.94;100.00
6694;BME280;3384;42.628;23.380;2022-09-09T03:46:40;94430.50;;;17.89;100.00
6694;BME280;3384;42.628;23.380;2022-09-09T03:49:07;94426.56;;;17.86;100.00
6694;BME280;3384;42.628;23.380;2022-09-09T03:51:36;94427.59;;;17.82;100.00
6694;BME280;3384;42.628;23.380;2022-09-09T03:54:04;94431.53;;;17.84;100.00
6694;BME280;3384;42.628;23.380;2022-09-09T03:56:33;94425.88;;;17.77;100.00
6694;BME280;3384;42.628;23.380;2022-09-09T03:59:00;94428.13;;;17.87;100.00
6694;BME280;3384;42.628;23.380;2022-09-09T04:01:27;94426.09;;;17.84;100.00
6694;BME280;3384;42.628;23.380;2022-09-09T04:03:54;94436.28;;;17.87;100.00
6694;BME280;3384;42.628;23.380;2022-09-09T04:06:23;94429.63;;;17.85;100.00
6694;BME280;3384;42.628;23.380;2022-09-09T04:08:51;94432.44;;;17.76;100.00
6694;BME280;3384;42.628;23.380;2022-09-09T04:11:18;94443.28;;;17.76;100.00
6694;BME280;3384;42.628;23.380;2022-09-09T04:13:45;94436.19;;;17.48;100.00
6694;BME280;3384;42.628;23.380;2022-09-09T04:16:13;94443.44;;;17.56;100.00
6694;BME280;3384;42.628;23.380;2022-09-09T04:18:40;94438.22;;;17.75;100.00
6694;BME280;3384;42.628;23.380;2022-09-09T04:21:08;94435.19;;;17.64;100.00
6694;BME280;3384;42.628;23.380;2022-09-09T04:23:35;94432.69;;;17.59;100.00
6694;BME280;3384;42.628;23.380;2022-09-09T04:26:04;94432.47;;;17.64;100.00
6694;BME280;3384;42.628;23.380;2022-09-09T04:28:32;94431.53;;;17.60;100.00
6694;BME280;3384;42.628;23.380;2022-09-09T04:31:05;94426.81;;;17.45;100.00
6694;BME280;3384;42.628;23.380;2022-09-09T04:33:35;94428.25;;;17.31;100.00
6694;BME280;3384;42.628;23.380;2022-09-09T04:36:12;94440.78;;;17.23;100.00
6694;BME280;3384;42.628;23.380;2022-09-09T04:38:39;94438.19;;;17.39;100.00
6694;BME280;3384;42.628;23.380;2022-09-09T04:41:07;94439.91;;;17.55;100.00
6694;BME280;3384;42.628;23.380;2022-09-09T04:43:36;94441.50;;;17.56;100.00
6694;BME280;3384;42.628;23.380;2022-09-09T04:46:04;94444.16;;;17.32;100.00
6694;BME280;3384;42.628;23.380;2022-09-09T04:48:31;94449.84;;;17.51;100.00
6694;BME280;3384;42.628;23.380;2022-09-09T04:51:00;94459.78;;;17.59;100.00
6694;BME280;3384;42.628;23.380;2022-09-09T04:53:27;94446.47;;;17.54;100.00
6694;BME280;3384;42.628;23.380;2022-09-09T04:56:01;94433.69;;;17.55;100.00
6694;BME280;3384;42.628;23.380;2022-09-09T04:58:30;94427.00;;;17.88;100.00
6694;BME280;3384;42.628;23.380;2022-09-09T05:01:06;94426.09;;;17.36;100.00
6694;BME280;3384;42.628;23.380;2022-09-09T05:03:33;94417.78;;;17.53;100.00
6694;BME280;3384;42.628;23.380;2022-09-09T05:06:04;94412.13;;;17.70;100.00
6694;BME280;3384;42.628;23.380;2022-09-09T05:08:32;94412.56;;;17.60;100.00
6694;BME280;3384;42.628;23.380;2022-09-09T05:10:58;94410.41;;;17.78;100.00
6694;BME280;3384;42.628;23.380;2022-09-09T05:13:26;94398.78;;;17.89;100.00
6694;BME280;3384;42.628;23.380;2022-09-09T05:15:54;94408.38;;;17.87;100.00
6694;BME280;3384;42.628;23.380;2022-09-09T05:18:21;94415.00;;;18.13;100.00
6694;BME280;3384;42.628;23.380;2022-09-09T05:20:48;94418.94;;;18.04;100.00
6694;BME280;3384;42.628;23.380;2022-09-09T05:23:16;94422.13;;;18.33;100.00
6694;BME280;3384;42.628;23.380;2022-09-09T05:25:43;94406.88;;;18.01;100.00
6694;BME280;3384;42.628;23.380;2022-09-09T05:28:12;94403.47;;;18.16;100.00
6694;BME280;3384;42.628;23.380;2022-09-09T05:30:38;94403.50;;;18.44;100.00
6694;BME280;3384;42.628;23.380;2022-09-09T05:33:07;94400.16;;;18.50;100.00
6694;BME280;3384;42.628;23.380;2022-09-09T05:35:34;94410.19;;;18.62;100.00
6694;BME280;3384;42.628;23.380;2022-09-09T05:38:01;94405.56;;;18.62;100.00
6694;BME280;3384;42.628;23.380;2022-09-09T05:40:28;94403.75;;;18.82;100.00
6694;BME280;3384;42.628;23.380;2022-09-09T05:42:55;94397.91;;;18.95;100.00
6694;BME280;3384;42.628;23.380;2022-09-09T05:45:25;94406.69;;;19.04;100.00
6694;BME280;3384;42.628;23.380;2022-09-09T05:47:52;94405.19;;;19.07;100.00
6694;BME280;3384;42.628;23.380;2022-09-09T05:50:21;94413.69;;;19.05;100.00
6694;BME280;3384;42.628;23.380;2022-09-09T05:52:48;94426.34;;;19.14;100.00
6694;BME280;3384;42.628;23.380;2022-09-09T05:55:15;94424.91;;;19.20;100.00
6694;BME280;3384;42.628;23.380;2022-09-09T05:57:48;94416.03;;;19.35;100.00
6694;BME280;3384;42.628;23.380;2022-09-09T06:00:17;94406.19;;;19.30;100.00
6694;BME280;3384;42.628;23.380;2022-09-09T06:02:50;94415.84;;;19.43;100.00
6694;BME280;3384;42.628;23.380;2022-09-09T06:05:17;94424.25;;;19.54;100.00
6694;BME280;3384;42.628;23.380;2022-09-09T06:07:45;94429.69;;;19.54;100.00
6694;BME280;3384;42.628;23.380;2022-09-09T06:10:12;94440.91;;;19.37;100.00
6694;BME280;3384;42.628;23.380;2022-09-09T06:12:39;94438.47;;;19.63;100.00
6694;BME280;3384;42.628;23.380;2022-09-09T06:15:07;94440.38;;;19.78;100.00
6694;BME280;3384;42.628;23.380;2022-09-09T06:17:34;94441.75;;;19.87;100.00
6694;BME280;3384;42.628;23.380;2022-09-09T06:20:02;94441.59;;;19.80;100.00
6694;BME280;3384;42.628;23.380;2022-09-09T06:22:29;94435.47;;;19.68;100.00
6694;BME280;3384;42.628;23.380;2022-09-09T06:24:58;94434.69;;;19.67;100.00
6694;BME280;3384;42.628;23.380;2022-09-09T06:27:27;94436.78;;;19.58;100.00
6694;BME280;3384;42.628;23.380;2022-09-09T06:29:55;94434.75;;;19.71;100.00
6694;BME280;3384;42.628;23.380;2022-09-09T06:32:22;94439.13;;;19.91;100.00
6694;BME280;3384;42.628;23.380;2022-09-09T06:34:49;94434.66;;;19.83;100.00
6694;BME280;3384;42.628;23.380;2022-09-09T06:37:16;94428.59;;;19.89;100.00
6694;BME280;3384;42.628;23.380;2022-09-09T06:39:42;94428.19;;;20.41;100.00
6694;BME280;3384;42.628;23.380;2022-09-09T06:42:11;94432.34;;;20.00;100.00
6694;BME280;3384;42.628;23.380;2022-09-09T06:44:37;94420.88;;;19.91;100.00
6694;BME280;3384;42.628;23.380;2022-09-09T06:47:04;94426.19;;;20.03;100.00
6694;BME280;3384;42.628;23.380;2022-09-09T06:49:31;94426.31;;;19.91;100.00
6694;BME280;3384;42.628;23.380;2022-09-09T06:51:58;94431.69;;;20.07;100.00
6694;BME280;3384;42.628;23.380;2022-09-09T07:04:32;94465.97;;;20.42;100.00
6694;BME280;3384;42.628;23.380;2022-09-09T07:13:37;94448.63;;;20.69;100.00
6694;BME280;3384;42.628;23.380;2022-09-09T07:16:04;94452.94;;;20.70;100.00
6694;BME280;3384;42.628;23.380;2022-09-09T07:18:32;94432.66;;;20.68;100.00
6694;BME280;3384;42.628;23.380;2022-09-09T07:21:02;94435.09;;;20.54;100.00
6694;BME280;3384;42.628;23.380;2022-09-09T07:23:30;94431.47;;;21.07;100.00
6694;BME280;3384;42.628;23.380;2022-09-09T07:25:57;94437.19;;;21.21;100.00
6694;BME280;3384;42.628;23.380;2022-09-09T07:28:24;94441.53;;;20.84;100.00
6694;BME280;3384;42.628;23.380;2022-09-09T07:30:53;94432.22;;;21.04;100.00
6694;BME280;3384;42.628;23.380;2022-09-09T07:33:21;94433.88;;;20.89;100.00
6694;BME280;3384;42.628;23.380;2022-09-09T07:35:47;94426.59;;;21.16;100.00
6694;BME280;3384;42.628;23.380;2022-09-09T07:38:16;94417.69;;;21.19;100.00
6694;BME280;3384;42.628;23.380;2022-09-09T07:40:43;94419.38;;;21.27;100.00
6694;BME280;3384;42.628;23.380;2022-09-09T07:43:10;94422.25;;;21.34;100.00
6694;BME280;3384;42.628;23.380;2022-09-09T07:45:37;94423.31;;;21.29;100.00
6694;BME280;3384;42.628;23.380;2022-09-09T07:48:06;94433.72;;;21.43;100.00
6694;BME280;3384;42.628;23.380;2022-09-09T07:50:33;94434.78;;;21.38;100.00
6694;BME280;3384;42.628;23.380;2022-09-09T07:53:00;94443.69;;;21.35;100.00
6694;BME280;3384;42.628;23.380;2022-09-09T07:55:29;94439.78;;;21.78;100.00
6694;BME280;3384;42.628;23.380;2022-09-09T07:57:55;94433.59;;;21.81;100.00
6694;BME280;3384;42.628;23.380;2022-09-09T08:00:22;94428.13;;;22.33;100.00
6694;BME280;3384;42.628;23.380;2022-09-09T08:02:56;94424.97;;;21.79;100.00
6694;BME280;3384;42.628;23.380;2022-09-09T08:05:22;94427.16;;;21.70;100.00
6694;BME280;3384;42.628;23.380;2022-09-09T08:07:49;94421.97;;;21.88;100.00
6694;BME280;3384;42.628;23.380;2022-09-09T08:10:16;94432.03;;;21.80;100.00
6694;BME280;3384;42.628;23.380;2022-09-09T08:12:45;94434.31;;;21.78;100.00
6694;BME280;3384;42.628;23.380;2022-09-09T08:15:12;94438.44;;;21.91;100.00
6694;BME280;3384;42.628;23.380;2022-09-09T08:17:39;94430.94;;;22.40;100.00
6694;BME280;3384;42.628;23.380;2022-09-09T08:20:06;94424.66;;;22.36;100.00
6694;BME280;3384;42.628;23.380;2022-09-09T08:22:33;94432.00;;;22.32;100.00
6694;BME280;3384;42.628;23.380;2022-09-09T08:25:00;94432.41;;;22.60;100.00
6694;BME280;3384;42.628;23.380;2022-09-09T08:27:27;94423.06;;;22.61;100.00
6694;BME280;3384;42.628;23.380;2022-09-09T08:29:58;94426.94;;;22.34;100.00
6694;BME280;3384;42.628;23.380;2022-09-09T08:32:25;94428.59;;;22.68;100.00
6694;BME280;3384;42.628;23.380;2022-09-09T08:34:53;94427.88;;;22.71;100.00
6694;BME280;3384;42.628;23.380;2022-09-09T08:37:19;94421.78;;;22.55;100.00
6694;BME280;3384;42.628;23.380;2022-09-09T08:39:46;94422.34;;;22.68;98.44
6694;BME280;3384;42.628;23.380;2022-09-09T08:42:28;94431.03;;;23.10;95.31
6694;BME280;3384;42.628;23.380;2022-09-09T08:45:12;94423.16;;;23.38;94.71
6694;BME280;3384;42.628;23.380;2022-09-09T08:47:53;94426.19;;;23.29;98.59
6694;BME280;3384;42.628;23.380;2022-09-09T08:50:25;94428.34;;;22.80;99.16
6694;BME280;3384;42.628;23.380;2022-09-09T08:52:57;94414.28;;;23.15;97.31
6694;BME280;3384;42.628;23.380;2022-09-09T08:55:35;94420.28;;;22.91;97.93
6694;BME280;3384;42.628;23.380;2022-09-09T08:58:09;94416.66;;;23.16;94.50
6694;BME280;3384;42.628;23.380;2022-09-09T09:00:44;94407.72;;;22.86;96.50
6694;BME280;3384;42.628;23.380;2022-09-09T09:03:22;94414.47;;;22.96;96.30
6694;BME280;3384;42.628;23.380;2022-09-09T09:06:01;94413.16;;;23.19;94.26
6694;BME280;3384;42.628;23.380;2022-09-09T09:08:37;94418.13;;;23.43;90.72
6694;BME280;3384;42.628;23.380;2022-09-09T09:11:06;94411.81;;;23.83;86.47
6694;BME280;3384;42.628;23.380;2022-09-09T09:13:39;94415.78;;;23.45;87.43
6694;BME280;3384;42.628;23.380;2022-09-09T09:16:17;94412.47;;;23.26;90.17
6694;BME280;3384;42.628;23.380;2022-09-09T09:18:47;94416.41;;;23.72;87.03
6694;BME280;3384;42.628;23.380;2022-09-09T09:21:17;94408.81;;;23.51;92.29
6694;BME280;3384;42.628;23.380;2022-09-09T09:23:53;94413.66;;;23.28;91.97
6694;BME280;3384;42.628;23.380;2022-09-09T09:26:21;94413.72;;;23.35;92.62
6694;BME280;3384;42.628;23.380;2022-09-09T09:28:50;94401.22;;;23.34;94.92
6694;BME280;3384;42.628;23.380;2022-09-09T09:31:20;94409.63;;;23.55;92.44
6694;BME280;3384;42.628;23.380;2022-09-09T09:33:51;94410.84;;;23.61;91.44
6694;BME280;3384;42.628;23.380;2022-09-09T09:36:18;94414.66;;;23.93;89.56
6694;BME280;3384;42.628;23.380;2022-09-09T09:38:53;94404.66;;;23.68;92.22
6694;BME280;3384;42.628;23.380;2022-09-09T09:41:42;94409.34;;;23.67;94.66
6694;BME280;3384;42.628;23.380;2022-09-09T09:44:22;94413.72;;;23.79;88.92
6694;BME280;3384;42.628;23.380;2022-09-09T09:46:51;94403.94;;;23.78;94.10
6694;BME280;3384;42.628;23.380;2022-09-09T09:49:18;94398.25;;;23.97;90.09
6694;BME280;3384;42.628;23.380;2022-09-09T09:51:45;94392.16;;;23.70;90.01
6694;BME280;3384;42.628;23.380;2022-09-09T09:54:22;94392.25;;;23.84;90.05
6694;BME280;3384;42.628;23.380;2022-09-09T09:56:54;94385.41;;;24.08;91.12
6694;BME280;3384;42.628;23.380;2022-09-09T09:59:33;94385.47;;;24.19;90.75
6694;BME280;3384;42.628;23.380;2022-09-09T10:02:15;94382.75;;;24.22;89.02
6694;BME280;3384;42.628;23.380;2022-09-09T10:04:43;94383.63;;;24.37;87.22
6694;BME280;3384;42.628;23.380;2022-09-09T10:07:11;94384.03;;;24.39;85.93
6694;BME280;3384;42.628;23.380;2022-09-09T10:09:38;94382.84;;;24.36;87.40
6694;BME280;3384;42.628;23.380;2022-09-09T10:12:14;94389.56;;;24.49;87.37
6694;BME280;3384;42.628;23.380;2022-09-09T10:14:54;94390.25;;;24.36;87.29
6694;BME280;3384;42.628;23.380;2022-09-09T10:17:32;94394.69;;;24.58;85.34
6694;BME280;3384;42.628;23.380;2022-09-09T10:20:19;94387.03;;;24.13;90.92
6694;BME280;3384;42.628;23.380;2022-09-09T10:22:52;94394.13;;;24.28;89.40
6694;BME280;3384;42.628;23.380;2022-09-09T10:25:35;94389.13;;;24.40;87.26
6694;BME280;3384;42.628;23.380;2022-09-09T10:28:30;94392.31;;;24.53;84.35
6694;BME280;3384;42.628;23.380;2022-09-09T10:31:08;94397.38;;;24.47;84.56
6694;BME280;3384;42.628;23.380;2022-09-09T10:33:46;94393.41;;;24.38;86.59
6694;BME280;3384;42.628;23.380;2022-09-09T10:36:19;94403.28;;;24.49;85.70
6694;BME280;3384;42.628;23.380;2022-09-09T10:38:52;94407.94;;;24.52;85.97
6694;BME280;3384;42.628;23.380;2022-09-09T10:41:31;94397.38;;;23.89;89.88
6694;BME280;3384;42.628;23.380;2022-09-09T10:44:23;94394.81;;;24.14;89.08
6694;BME280;3384;42.628;23.380;2022-09-09T10:47:09;94405.19;;;24.42;86.97
6694;BME280;3384;42.628;23.380;2022-09-09T10:49:53;94399.28;;;24.40;87.21
6694;BME280;3384;42.628;23.380;2022-09-09T10:52:27;94404.59;;;24.08;90.48
6694;BME280;3384;42.628;23.380;2022-09-09T10:54:59;94402.41;;;24.35;88.59
6694;BME280;3384;42.628;23.380;2022-09-09T10:57:31;94398.09;;;24.37;89.90
6694;BME280;3384;42.628;23.380;2022-09-09T11:00:05;94393.88;;;24.54;87.54
6694;BME280;3384;42.628;23.380;2022-09-09T11:02:33;94400.03;;;24.33;91.59
6694;BME280;3384;42.628;23.380;2022-09-09T11:05:05;94395.75;;;24.36;90.08
6694;BME280;3384;42.628;23.380;2022-09-09T11:07:44;94409.06;;;24.37;90.26
6694;BME280;3384;42.628;23.380;2022-09-09T11:10:18;94406.69;;;24.32;89.68
6694;BME280;3384;42.628;23.380;2022-09-09T11:12:50;94405.47;;;24.26;89.20
6694;BME280;3384;42.628;23.380;2022-09-09T11:15:23;94411.44;;;24.42;87.45
6694;BME280;3384;42.628;23.380;2022-09-09T11:17:56;94408.75;;;24.49;86.58
6694;BME280;3384;42.628;23.380;2022-09-09T11:20:26;94406.31;;;24.37;88.05
6694;BME280;3384;42.628;23.380;2022-09-09T11:23:00;94393.44;;;24.45;87.94
6694;BME280;3384;42.628;23.380;2022-09-09T11:25:32;94388.72;;;24.42;88.93
6694;BME280;3384;42.628;23.380;2022-09-09T11:28:27;94379.88;;;24.69;86.13
6694;BME280;3384;42.628;23.380;2022-09-09T11:31:10;94380.78;;;25.01;83.23
6694;BME280;3384;42.628;23.380;2022-09-09T11:33:57;94378.03;;;25.01;84.77
6694;BME280;3384;42.628;23.380;2022-09-09T11:36:47;94370.78;;;24.55;88.20
6694;BME280;3384;42.628;23.380;2022-09-09T11:42:34;94357.22;;;24.83;86.65
6694;BME280;3384;42.628;23.380;2022-09-09T11:45:09;94356.03;;;24.80;86.78
6694;BME280;3384;42.628;23.380;2022-09-09T11:47:38;94353.28;;;24.77;87.11
6694;BME280;3384;42.628;23.380;2022-09-09T11:50:10;94345.88;;;24.95;86.02
6694;BME280;3384;42.628;23.380;2022-09-09T11:53:06;94331.72;;;24.68;88.49
6694;BME280;3384;42.628;23.380;2022-09-09T11:55:42;94311.75;;;24.75;88.99
6694;BME280;3384;42.628;23.380;2022-09-09T11:58:16;94304.31;;;24.72;93.65
6694;BME280;3384;42.628;23.380;2022-09-09T12:00:45;94303.56;;;24.85;93.73
6694;BME280;3384;42.628;23.380;2022-09-09T12:03:38;94307.13;;;25.14;90.48
6694;BME280;3384;42.628;23.380;2022-09-09T12:06:14;94312.13;;;24.63;97.27
6694;BME280;3384;42.628;23.380;2022-09-09T12:08:50;94322.78;;;24.89;90.11
6694;BME280;3384;42.628;23.380;2022-09-09T12:11:29;94324.72;;;25.06;89.43
6694;BME280;3384;42.628;23.380;2022-09-09T12:13:59;94314.97;;;25.15;85.64
6694;BME280;3384;42.628;23.380;2022-09-09T12:16:29;94308.66;;;24.94;94.15
6694;BME280;3384;42.628;23.380;2022-09-09T12:19:14;94302.00;;;25.02;91.99
6694;BME280;3384;42.628;23.380;2022-09-09T12:21:48;94303.59;;;25.10;89.95
6694;BME280;3384;42.628;23.380;2022-09-09T12:24:23;94304.78;;;25.19;87.50
6694;BME280;3384;42.628;23.380;2022-09-09T12:26:58;94300.47;;;25.15;86.35
6694;BME280;3384;42.628;23.380;2022-09-09T12:29:35;94297.31;;;25.09;86.67
6694;BME280;3384;42.628;23.380;2022-09-09T12:32:10;94300.69;;;24.54;91.39
6694;BME280;3384;42.628;23.380;2022-09-09T12:34:39;94284.75;;;24.91;88.83
6694;BME280;3384;42.628;23.380;2022-09-09T12:37:15;94284.69;;;24.63;90.18
6694;BME280;3384;42.628;23.380;2022-09-09T12:39:48;94280.84;;;24.81;91.00
6694;BME280;3384;42.628;23.380;2022-09-09T12:42:18;94284.78;;;25.15;88.03
6694;BME280;3384;42.628;23.380;2022-09-09T12:44:56;94270.66;;;25.27;88.49
6694;BME280;3384;42.628;23.380;2022-09-09T12:47:31;94280.06;;;25.09;88.33
6694;BME280;3384;42.628;23.380;2022-09-09T12:50:01;94272.63;;;25.20;88.01
6694;BME280;3384;42.628;23.380;2022-09-09T12:52:30;94285.59;;;25.30;88.22
6694;BME280;3384;42.628;23.380;2022-09-09T12:55:02;94284.78;;;25.19;87.36
6694;BME280;3384;42.628;23.380;2022-09-09T12:57:33;94276.94;;;25.24;87.86
6694;BME280;3384;42.628;23.380;2022-09-09T13:00:08;94266.38;;;25.37;86.95
6694;BME280;3384;42.628;23.380;2022-09-09T13:02:46;94262.84;;;25.64;86.11
6694;BME280;3384;42.628;23.380;2022-09-09T13:05:15;94264.03;;;25.53;90.03
6694;BME280;3384;42.628;23.380;2022-09-09T13:07:42;94253.84;;;25.53;89.51
6694;BME280;3384;42.628;23.380;2022-09-09T13:10:13;94249.50;;;25.10;90.26
6694;BME280;3384;42.628;23.380;2022-09-09T13:12:41;94255.00;;;25.38;89.00
6694;BME280;3384;42.628;23.380;2022-09-09T13:15:17;94249.91;;;25.65;86.49
6694;BME280;3384;42.628;23.380;2022-09-09T13:17:50;94246.75;;;25.24;87.32
6694;BME280;3384;42.628;23.380;2022-09-09T13:20:20;94241.66;;;25.54;86.60
6694;BME280;3384;42.628;23.380;2022-09-09T13:22:48;94243.97;;;25.80;83.27
6694;BME280;3384;42.628;23.380;2022-09-09T13:25:22;94244.78;;;25.77;82.67
6694;BME280;3384;42.628;23.380;2022-09-09T13:27:56;94244.00;;;25.70;83.52
6694;BME280;3384;42.628;23.380;2022-09-09T13:30:29;94238.13;;;25.61;83.92
6694;BME280;3384;42.628;23.380;2022-09-09T13:33:00;94234.63;;;25.60;86.58
6694;BME280;3384;42.628;23.380;2022-09-09T13:35:27;94232.59;;;25.75;86.02
6694;BME280;3384;42.628;23.380;2022-09-09T13:37:54;94234.25;;;25.34;89.38
6694;BME280;3384;42.628;23.380;2022-09-09T13:40:24;94222.06;;;25.28;92.26
6694;BME280;3384;42.628;23.380;2022-09-09T13:42:53;94238.53;;;25.28;90.76
6694;BME280;3384;42.628;23.380;2022-09-09T13:45:25;94230.69;;;25.54;87.39
6694;BME280;3384;42.628;23.380;2022-09-09T13:47:53;94230.69;;;25.51;87.20